createdAt,value
2022-10-10T00:01:33.460Z,60.09
2022-10-10T00:04:01.082Z,60.08
2022-10-10T00:06:32.679Z,59.70
2022-10-10T00:09:00.727Z,59.46
2022-10-10T00:11:27.704Z,59.57
2022-10-10T00:13:54.600Z,59.27
2022-10-10T00:16:21.512Z,59.31
2022-10-10T00:18:48.833Z,59.51
2022-10-10T00:21:15.774Z,59.29
2022-10-10T00:23:42.653Z,59.35
2022-10-10T00:26:12.706Z,59.42
2022-10-10T00:28:43.152Z,59.13
2022-10-10T00:31:10.478Z,59.49
2022-10-10T00:33:37.946Z,59.35
2022-10-10T00:36:06.428Z,58.99
2022-10-10T00:38:33.463Z,59.35
2022-10-10T00:41:00.877Z,59.19
2022-10-10T00:43:29.588Z,59.40
2022-10-10T00:45:56.835Z,59.63
2022-10-10T00:48:41.343Z,59.98
2022-10-10T00:51:18.886Z,60.15
2022-10-10T00:53:55.192Z,60.22
2022-10-10T00:56:26.667Z,60.03
2022-10-10T00:58:56.960Z,60.02
2022-10-10T01:01:23.982Z,59.81
2022-10-10T01:03:50.943Z,59.81
2022-10-10T01:06:17.830Z,59.95
2022-10-10T01:08:44.816Z,59.75
2022-10-10T01:11:37.753Z,59.97
2022-10-10T01:14:55.940Z,59.76
2022-10-10T01:17:40.265Z,59.65
2022-10-10T01:20:38.839Z,60.18
2022-10-10T01:23:36.374Z,60.08
2022-10-10T01:26:49.675Z,60.26
2022-10-10T01:29:33.521Z,60.72
2022-10-10T01:32:31.188Z,60.48
2022-10-10T01:35:54.560Z,60.56
2022-10-10T01:38:42.140Z,60.76
2022-10-10T01:41:15.836Z,60.89
2022-10-10T01:43:42.954Z,61.26
2022-10-10T01:46:18.881Z,61.72
2022-10-10T01:48:50.214Z,61.43
2022-10-10T01:51:51.242Z,61.53
2022-10-10T01:54:42.213Z,61.53
2022-10-10T01:57:31.722Z,61.56
2022-10-10T02:00:14.612Z,61.69
2022-10-10T02:03:14.246Z,61.69
2022-10-10T02:06:03.025Z,61.84
2022-10-10T02:08:54.299Z,62.33
2022-10-10T02:11:21.600Z,62.17
2022-10-10T02:13:56.912Z,62.47
2022-10-10T02:16:35.768Z,61.99
2022-10-10T02:19:06.840Z,62.04
2022-10-10T02:21:34.578Z,61.82
2022-10-10T02:24:07.024Z,61.95
2022-10-10T02:26:35.149Z,61.56
2022-10-10T02:29:12.872Z,61.22
2022-10-10T02:32:02.332Z,61.21
2022-10-10T02:34:36.062Z,61.08
2022-10-10T02:37:12.562Z,61.07
2022-10-10T02:39:52.190Z,61.02
2022-10-10T02:42:22.676Z,61.37
2022-10-10T02:44:50.480Z,61.15
2022-10-10T02:47:17.543Z,61.07
2022-10-10T02:49:44.556Z,61.10
2022-10-10T02:52:15.145Z,60.88
2022-10-10T02:54:42.514Z,61.17
2022-10-10T02:57:09.495Z,60.74
2022-10-10T02:59:36.400Z,61.16
2022-10-10T03:02:03.339Z,60.78
2022-10-10T03:04:30.231Z,60.63
2022-10-10T03:06:57.091Z,60.81
2022-10-10T03:09:23.977Z,60.80
2022-10-10T03:11:50.855Z,60.51
2022-10-10T03:14:17.737Z,60.50
2022-10-10T03:16:44.632Z,60.46
2022-10-10T03:19:11.503Z,60.45
2022-10-10T03:21:38.430Z,60.46
2022-10-10T03:24:05.794Z,60.34
2022-10-10T03:26:33.110Z,60.36
2022-10-10T03:29:02.759Z,60.37
2022-10-10T03:31:30.124Z,60.03
2022-10-10T03:33:56.997Z,59.90
2022-10-10T03:36:23.905Z,59.88
2022-10-10T03:38:51.818Z,60.02
2022-10-10T03:41:18.687Z,60.07
2022-10-10T03:43:45.548Z,59.56
2022-10-10T03:46:15.990Z,59.79
2022-10-10T03:48:43.761Z,59.62
2022-10-10T03:51:10.732Z,59.63
2022-10-10T03:53:37.627Z,59.90
2022-10-10T03:56:05.596Z,59.85
2022-10-10T03:58:32.500Z,59.83
2022-10-10T04:01:02.516Z,59.70
2022-10-10T04:03:29.995Z,60.04
2022-10-10T04:05:57.158Z,59.52
2022-10-10T04:08:24.344Z,59.98
2022-10-10T04:10:53.907Z,59.90
2022-10-10T04:13:25.772Z,59.79
2022-10-10T04:15:54.779Z,59.71
2022-10-10T04:18:22.435Z,59.55
2022-10-10T04:20:49.352Z,59.54
2022-10-10T04:23:16.467Z,59.73
2022-10-10T04:25:44.422Z,59.91
2022-10-10T04:28:13.282Z,59.65
2022-10-10T04:30:40.629Z,59.81
2022-10-10T04:33:07.777Z,59.76
2022-10-10T04:35:35.933Z,59.89
2022-10-10T04:38:04.585Z,59.99
2022-10-10T04:40:31.757Z,60.44
2022-10-10T04:42:58.976Z,60.56
2022-10-10T04:45:26.653Z,60.59
2022-10-10T04:47:54.789Z,60.92
2022-10-10T04:50:22.830Z,60.99
2022-10-10T04:52:50.016Z,61.33
2022-10-10T04:55:17.180Z,61.13
2022-10-10T04:57:44.244Z,61.33
2022-10-10T05:00:12.064Z,61.20
2022-10-10T05:02:39.107Z,60.67
2022-10-10T05:05:06.865Z,60.76
2022-10-10T05:07:33.741Z,60.93
2022-10-10T05:10:00.713Z,60.76
2022-10-10T05:12:27.599Z,60.66
2022-10-10T05:14:54.489Z,61.04
2022-10-10T05:17:21.363Z,61.06
2022-10-10T05:19:48.298Z,60.90
2022-10-10T05:22:15.208Z,61.04
2022-10-10T05:24:42.138Z,61.01
2022-10-10T05:27:09.043Z,61.14
2022-10-10T05:29:35.915Z,61.55
2022-10-10T05:32:06.484Z,61.21
2022-10-10T05:34:36.140Z,61.33
2022-10-10T05:37:03.073Z,61.30
2022-10-10T05:39:30.025Z,61.16
2022-10-10T05:41:56.907Z,61.11
2022-10-10T05:44:23.861Z,61.02
2022-10-10T05:46:50.714Z,61.21
2022-10-10T05:49:17.677Z,61.50
2022-10-10T05:51:44.646Z,61.11
2022-10-10T05:54:11.574Z,61.11
2022-10-10T05:56:38.489Z,60.93
2022-10-10T05:59:05.558Z,60.99
2022-10-10T06:01:32.687Z,60.91
2022-10-10T06:03:59.615Z,61.06
2022-10-10T06:06:26.751Z,60.88
2022-10-10T06:08:53.654Z,60.70
2022-10-10T06:11:22.739Z,60.67
2022-10-10T06:13:54.006Z,60.71
2022-10-10T06:16:27.801Z,60.75
2022-10-10T06:18:57.041Z,60.66
2022-10-10T06:21:24.911Z,60.63
2022-10-10T06:23:52.040Z,60.82
2022-10-10T06:26:19.022Z,60.24
2022-10-10T06:28:46.416Z,60.20
2022-10-10T06:31:15.473Z,60.57
2022-10-10T06:33:45.387Z,60.09
2022-10-10T06:36:13.682Z,60.31
2022-10-10T06:38:43.516Z,60.36
2022-10-10T06:41:10.909Z,60.31
2022-10-10T06:43:37.848Z,60.31
2022-10-10T06:46:05.379Z,60.21
2022-10-10T06:48:34.804Z,60.19
2022-10-10T06:51:08.896Z,60.29
2022-10-10T06:53:35.893Z,60.29
2022-10-10T06:56:03.829Z,59.97
2022-10-10T06:58:31.643Z,60.13
2022-10-10T07:01:02.231Z,59.93
2022-10-10T07:03:30.578Z,59.86
2022-10-10T07:06:00.836Z,59.98
2022-10-10T07:08:28.445Z,59.62
2022-10-10T07:10:55.819Z,59.73
2022-10-10T07:13:23.652Z,59.96
2022-10-10T07:15:50.516Z,59.71
2022-10-10T07:18:18.870Z,59.59
2022-10-10T07:20:45.911Z,59.42
2022-10-10T07:23:13.306Z,58.92
2022-10-10T07:25:42.200Z,59.15
2022-10-10T07:28:09.878Z,58.65
2022-10-10T07:30:46.197Z,58.62
2022-10-10T07:33:14.788Z,58.71
2022-10-10T07:35:42.384Z,58.86
2022-10-10T07:38:11.607Z,58.76
2022-10-10T07:40:41.466Z,58.84
2022-10-10T07:43:08.418Z,58.78
2022-10-10T07:45:37.160Z,58.47
2022-10-10T07:48:04.649Z,58.36
2022-10-10T07:50:31.572Z,58.15
2022-10-10T07:52:58.520Z,58.39
2022-10-10T07:55:25.449Z,58.80
2022-10-10T07:57:53.621Z,58.54
2022-10-10T08:00:20.890Z,58.74
2022-10-10T08:02:47.797Z,58.47
2022-10-10T08:05:14.713Z,58.49
2022-10-10T08:07:41.580Z,58.42
2022-10-10T08:10:09.908Z,57.81
2022-10-10T08:12:36.999Z,57.68
2022-10-10T08:15:06.185Z,57.92
2022-10-10T08:17:33.718Z,57.85
2022-10-10T08:20:00.630Z,56.99
2022-10-10T08:22:27.524Z,56.73
2022-10-10T08:24:54.413Z,56.52
2022-10-10T08:27:21.337Z,56.95
2022-10-10T08:29:48.499Z,56.72
2022-10-10T08:32:15.381Z,56.26
2022-10-10T08:34:42.294Z,56.06
2022-10-10T08:37:09.168Z,55.28
2022-10-10T08:39:36.074Z,54.42
2022-10-10T08:42:03.819Z,54.36
2022-10-10T08:44:46.224Z,54.21
2022-10-10T08:47:38.820Z,54.14
2022-10-10T08:50:15.892Z,53.02
2022-10-10T08:52:53.650Z,53.40
2022-10-10T08:55:33.707Z,53.24
2022-10-10T08:58:17.274Z,52.09
2022-10-10T09:00:51.839Z,50.31
2022-10-10T09:03:35.727Z,50.24
2022-10-10T09:06:34.862Z,49.59
2022-10-10T09:09:28.641Z,49.90
2022-10-10T09:12:22.313Z,49.87
2022-10-10T09:15:16.927Z,49.35
2022-10-10T09:18:03.279Z,49.87
2022-10-10T09:20:45.735Z,49.36
2022-10-10T09:23:41.471Z,49.54
2022-10-10T09:26:19.766Z,49.20
2022-10-10T09:28:53.020Z,49.05
2022-10-10T09:31:28.462Z,48.66
2022-10-10T09:34:14.669Z,49.21
2022-10-10T09:36:42.417Z,48.73
2022-10-10T09:39:33.381Z,48.21
2022-10-10T09:42:04.476Z,48.73
2022-10-10T09:44:32.606Z,49.07
2022-10-10T09:47:00.496Z,49.14
2022-10-10T09:49:27.479Z,48.08
2022-10-10T09:51:54.448Z,47.96
2022-10-10T09:54:22.432Z,48.32
2022-10-10T09:56:55.171Z,48.83
2022-10-10T09:59:45.346Z,47.83
2022-10-10T10:02:24.341Z,47.37
2022-10-10T10:04:54.911Z,47.37
2022-10-10T10:07:34.027Z,47.21
2022-10-10T10:10:12.115Z,47.85
2022-10-10T10:12:42.919Z,47.96
2022-10-10T10:15:31.620Z,47.40
2022-10-10T10:18:16.804Z,47.63
2022-10-10T10:20:47.359Z,47.34
2022-10-10T10:23:51.502Z,47.58
2022-10-10T10:26:41.216Z,47.47
2022-10-10T10:29:34.184Z,46.54
2022-10-10T10:32:45.463Z,46.49
2022-10-10T10:35:27.002Z,46.85
2022-10-10T10:38:26.914Z,46.76
2022-10-10T10:41:33.849Z,46.28
2022-10-10T10:44:36.371Z,46.41
2022-10-10T10:47:33.121Z,46.36
2022-10-10T10:50:20.956Z,45.74
2022-10-10T10:53:24.825Z,45.41
2022-10-10T10:56:41.694Z,45.26
2022-10-10T11:00:22.001Z,44.46
2022-10-10T11:05:17.735Z,44.99
2022-10-10T11:07:18.821Z,44.58
2022-10-10T11:09:55.517Z,44.46
2022-10-10T11:12:58.441Z,44.26
2022-10-10T11:16:06.118Z,44.22
2022-10-10T11:18:33.446Z,44.66
2022-10-10T11:21:27.874Z,44.57
2022-10-10T11:24:05.142Z,44.05
2022-10-10T11:26:39.473Z,43.87
2022-10-10T11:29:19.149Z,43.63
2022-10-10T11:31:55.454Z,43.45
2022-10-10T11:34:40.792Z,43.94
2022-10-10T11:37:17.667Z,43.74
2022-10-10T11:39:57.001Z,43.09
2022-10-10T11:42:27.428Z,43.10
2022-10-10T11:45:06.651Z,43.21
2022-10-10T11:47:56.644Z,43.87
2022-10-10T11:50:29.664Z,44.00
2022-10-10T11:53:12.480Z,43.65
2022-10-10T11:55:56.219Z,43.10
2022-10-10T11:58:44.156Z,43.28
2022-10-10T12:01:30.054Z,43.53
2022-10-10T12:04:00.020Z,43.96
2022-10-10T12:06:44.813Z,44.06
2022-10-10T12:09:29.146Z,44.27
2022-10-10T12:12:13.792Z,44.10
2022-10-10T12:14:46.742Z,44.11
2022-10-10T12:17:42.129Z,43.62
2022-10-10T12:20:35.992Z,43.46
2022-10-10T12:23:14.684Z,43.18
2022-10-10T12:25:46.117Z,43.52
2022-10-10T12:28:13.081Z,43.07
2022-10-10T12:30:58.208Z,43.69
2022-10-10T12:33:31.775Z,43.06
2022-10-10T12:36:18.731Z,43.73
2022-10-10T12:39:06.418Z,43.98
2022-10-10T12:41:47.209Z,43.02
2022-10-10T12:44:45.062Z,43.44
2022-10-10T12:47:14.705Z,43.59
2022-10-10T12:50:00.585Z,43.20
2022-10-10T12:52:44.813Z,42.46
2022-10-10T12:55:34.916Z,42.72
2022-10-10T12:58:12.168Z,42.70
2022-10-10T13:00:46.268Z,42.94
2022-10-10T13:03:36.570Z,42.79
2022-10-10T13:06:40.914Z,43.08
2022-10-10T13:09:35.495Z,43.00
2022-10-10T13:12:06.490Z,43.01
2022-10-10T13:14:44.533Z,42.74
2022-10-10T13:17:31.430Z,42.90
2022-10-10T13:20:01.111Z,42.91
2022-10-10T13:22:33.392Z,42.97
2022-10-10T13:25:01.153Z,42.99
2022-10-10T13:27:32.295Z,42.21
2022-10-10T13:29:59.671Z,42.42
2022-10-10T13:32:29.933Z,41.91
2022-10-10T13:35:00.985Z,41.87
2022-10-10T13:37:29.186Z,42.20
2022-10-10T13:39:56.440Z,42.02
2022-10-10T13:42:39.296Z,41.94
2022-10-10T13:45:44.355Z,42.54
2022-10-10T13:48:35.435Z,42.09
2022-10-10T13:51:14.661Z,42.40
2022-10-10T13:53:53.984Z,41.84
2022-10-10T13:56:34.416Z,42.04
2022-10-10T13:59:01.174Z,42.51
2022-10-10T14:01:32.538Z,42.77
2022-10-10T14:04:36.092Z,42.50
2022-10-10T14:07:12.086Z,43.04
2022-10-10T14:09:43.623Z,42.85
2022-10-10T14:12:24.493Z,42.89
2022-10-10T14:14:53.940Z,42.70
2022-10-10T14:17:21.686Z,42.92
2022-10-10T14:19:49.839Z,43.03
2022-10-10T14:22:17.429Z,43.44
2022-10-10T14:24:44.581Z,43.01
2022-10-10T14:27:26.082Z,43.02
2022-10-10T14:29:55.746Z,42.94
2022-10-10T14:32:23.077Z,43.39
2022-10-10T14:34:49.979Z,43.19
2022-10-10T14:37:22.588Z,43.57
2022-10-10T14:39:49.791Z,43.85
2022-10-10T14:42:18.912Z,43.77
2022-10-10T14:44:46.294Z,43.58
2022-10-10T14:47:19.589Z,43.77
2022-10-10T14:49:46.957Z,43.61
2022-10-10T14:52:14.795Z,43.62
2022-10-10T14:54:41.764Z,44.02
2022-10-10T14:57:10.852Z,43.94
2022-10-10T14:59:47.709Z,44.39
2022-10-10T15:02:21.022Z,43.94
2022-10-10T15:04:48.486Z,44.27
2022-10-10T15:07:15.753Z,44.56
2022-10-10T15:10:17.619Z,44.51
2022-10-10T15:12:33.356Z,44.72
2022-10-10T15:15:00.242Z,44.76
2022-10-10T15:17:27.275Z,44.86
2022-10-10T15:19:54.175Z,44.96
2022-10-10T15:22:21.042Z,45.08
2022-10-10T15:24:47.904Z,45.43
2022-10-10T15:27:14.856Z,45.49
2022-10-10T15:29:41.723Z,45.39
2022-10-10T15:32:08.657Z,45.52
2022-10-10T15:34:36.136Z,45.16
2022-10-10T15:37:03.472Z,45.92
2022-10-10T15:39:31.236Z,46.05
2022-10-10T15:42:01.329Z,46.03
2022-10-10T15:44:33.979Z,46.20
2022-10-10T15:47:00.848Z,46.50
2022-10-10T15:49:27.743Z,46.13
2022-10-10T15:51:54.627Z,46.26
2022-10-10T15:54:21.546Z,46.52
2022-10-10T15:56:48.429Z,46.38
2022-10-10T15:59:15.411Z,46.57
2022-10-10T16:01:42.276Z,46.72
2022-10-10T16:04:09.169Z,47.03
2022-10-10T16:06:36.046Z,46.81
2022-10-10T16:09:26.823Z,47.23
2022-10-10T16:11:49.935Z,47.16
2022-10-10T16:14:16.833Z,47.25
2022-10-10T16:16:43.717Z,47.45
2022-10-10T16:19:10.603Z,47.29
2022-10-10T16:21:37.496Z,47.38
2022-10-10T16:24:04.456Z,47.43
2022-10-10T16:26:34.551Z,47.69
2022-10-10T16:29:02.021Z,47.57
2022-10-10T16:31:29.243Z,48.02
2022-10-10T16:33:58.384Z,48.31
2022-10-10T16:36:31.392Z,47.83
2022-10-10T16:38:59.572Z,48.14
2022-10-10T16:41:47.097Z,48.30
2022-10-10T16:44:15.501Z,48.84
2022-10-10T16:46:42.501Z,49.17
2022-10-10T16:49:11.997Z,49.49
2022-10-10T16:51:39.117Z,49.38
2022-10-10T16:54:06.396Z,49.61
2022-10-10T16:56:34.118Z,49.79
2022-10-10T16:59:01.759Z,50.00
2022-10-10T17:01:29.188Z,49.90
2022-10-10T17:03:59.554Z,50.54
2022-10-10T17:06:30.176Z,50.22
2022-10-10T17:09:02.504Z,50.19
2022-10-10T17:11:29.447Z,50.21
2022-10-10T17:13:56.359Z,50.49
2022-10-10T17:19:13.485Z,50.08
2022-10-10T17:21:40.519Z,50.16
2022-10-10T17:24:07.450Z,50.53
2022-10-10T17:26:34.344Z,50.83
2022-10-10T17:29:01.218Z,50.21
2022-10-10T17:31:28.402Z,50.97
2022-10-10T17:33:57.459Z,50.96
2022-10-10T17:36:28.169Z,50.89
2022-10-10T17:39:01.855Z,50.42
2022-10-10T17:41:30.067Z,50.85
2022-10-10T17:43:57.159Z,50.87
2022-10-10T17:46:34.702Z,50.74
2022-10-10T17:49:06.716Z,51.15
2022-10-10T17:51:35.461Z,51.03
2022-10-10T17:54:03.453Z,51.25
2022-10-10T17:56:30.485Z,51.14
2022-10-10T17:58:59.309Z,51.39
2022-10-10T18:01:26.499Z,51.74
2022-10-10T18:03:53.495Z,51.59
2022-10-10T18:06:22.345Z,51.84
2022-10-10T18:08:53.906Z,52.20
2022-10-10T18:11:27.652Z,51.89
2022-10-10T18:13:59.976Z,51.86
2022-10-10T18:16:32.359Z,52.13
2022-10-10T18:18:59.699Z,52.09
2022-10-10T18:21:27.162Z,52.65
2022-10-10T18:23:54.530Z,52.75
2022-10-10T18:26:25.457Z,52.54
2022-10-10T18:28:54.181Z,52.63
2022-10-10T18:31:28.314Z,52.69
2022-10-10T18:33:56.124Z,53.03
2022-10-10T18:36:29.937Z,53.24
2022-10-10T18:39:02.346Z,53.52
2022-10-10T18:41:34.051Z,53.67
2022-10-10T18:44:04.941Z,53.89
2022-10-10T18:46:32.543Z,53.80
2022-10-10T18:49:00.896Z,54.32
2022-10-10T18:51:29.651Z,54.30
2022-10-10T18:54:02.066Z,54.66
2022-10-10T18:56:32.183Z,54.88
2022-10-10T18:59:03.383Z,55.27
2022-10-10T19:01:35.095Z,55.54
2022-10-10T19:04:04.318Z,55.43
2022-10-10T19:06:31.474Z,55.31
2022-10-10T19:09:00.322Z,55.80
2022-10-10T19:11:30.864Z,55.64
2022-10-10T19:14:04.414Z,55.42
2022-10-10T19:16:31.726Z,55.60
2022-10-10T19:19:00.137Z,55.38
2022-10-10T19:21:29.939Z,55.69
2022-10-10T19:23:58.636Z,55.79
2022-10-10T19:26:25.630Z,55.66
2022-10-10T19:28:52.584Z,55.60
2022-10-10T19:31:20.558Z,55.80
2022-10-10T19:33:52.227Z,55.46
2022-10-10T19:36:19.406Z,55.27
2022-10-10T19:38:46.541Z,55.45
2022-10-10T19:41:14.723Z,55.12
2022-10-10T19:43:44.093Z,55.01
2022-10-10T19:46:14.839Z,55.07
2022-10-10T19:48:42.324Z,54.85
2022-10-10T19:51:13.350Z,55.53
2022-10-10T19:53:42.424Z,55.57
2022-10-10T19:56:16.105Z,55.25
2022-10-10T19:58:43.650Z,55.65
2022-10-10T20:01:14.694Z,55.72
2022-10-10T20:03:42.592Z,54.74
2022-10-10T20:06:09.959Z,54.87
2022-10-10T20:08:36.901Z,54.92
2022-10-10T20:11:04.764Z,54.80
2022-10-10T20:13:32.080Z,54.64
2022-10-10T20:16:01.311Z,54.74
2022-10-10T20:18:28.409Z,54.81
2022-10-10T20:20:55.550Z,54.92
2022-10-10T20:23:24.661Z,54.81
2022-10-10T20:25:52.481Z,55.13
2022-10-10T20:28:20.705Z,55.50
2022-10-10T20:30:50.519Z,55.60
2022-10-10T20:33:19.713Z,55.84
2022-10-10T20:35:49.300Z,56.11
2022-10-10T20:38:19.205Z,56.85
2022-10-10T20:40:46.084Z,57.07
2022-10-10T20:43:14.729Z,56.98
2022-10-10T20:45:41.775Z,56.88
2022-10-10T20:48:09.735Z,57.33
2022-10-10T20:50:38.052Z,57.37
2022-10-10T20:53:06.604Z,57.64
2022-10-10T20:55:33.798Z,57.62
2022-10-10T20:58:00.840Z,57.76
2022-10-10T21:00:27.745Z,58.00
2022-10-10T21:02:56.287Z,58.21
2022-10-10T21:05:23.239Z,58.42
2022-10-10T21:07:50.097Z,58.32
2022-10-10T21:10:17.045Z,58.44
2022-10-10T21:12:43.982Z,58.61
2022-10-10T21:15:11.068Z,58.87
2022-10-10T21:17:37.961Z,59.48
2022-10-10T21:20:05.803Z,59.36
2022-10-10T21:22:32.723Z,59.93
2022-10-10T21:24:59.636Z,59.89
2022-10-10T21:27:26.579Z,59.63
2022-10-10T21:29:53.459Z,59.80
2022-10-10T21:32:20.319Z,59.77
2022-10-10T21:34:47.211Z,59.77
2022-10-10T21:37:14.269Z,59.75
2022-10-10T21:39:41.169Z,59.98
2022-10-10T21:42:08.050Z,60.32
2022-10-10T21:44:35.124Z,59.98
2022-10-10T21:47:01.979Z,60.31
2022-10-10T21:49:28.860Z,59.87
2022-10-10T21:51:55.735Z,60.26
2022-10-10T21:54:22.611Z,59.87
2022-10-10T21:56:49.524Z,59.68
2022-10-10T21:59:16.413Z,59.49
2022-10-10T22:01:44.404Z,59.47
2022-10-10T22:04:11.490Z,59.42
2022-10-10T22:06:38.665Z,59.15
2022-10-10T22:09:05.627Z,58.94
2022-10-10T22:11:34.454Z,58.66
2022-10-10T22:14:04.451Z,58.03
2022-10-10T22:16:33.433Z,57.86
2022-10-10T22:19:00.953Z,57.01
2022-10-10T22:21:31.704Z,56.65
2022-10-10T22:24:01.865Z,56.32
2022-10-10T22:26:30.028Z,56.54
2022-10-10T22:28:57.277Z,56.50
2022-10-10T22:31:24.289Z,56.22
2022-10-10T22:33:51.252Z,56.19
2022-10-10T22:36:18.200Z,56.21
2022-10-10T22:38:45.618Z,55.91
2022-10-10T22:41:12.932Z,56.19
2022-10-10T22:43:39.846Z,56.06
2022-10-10T22:46:07.592Z,56.28
2022-10-10T22:48:34.970Z,56.04
2022-10-10T22:51:06.599Z,56.39
2022-10-10T22:53:33.546Z,56.44
2022-10-10T22:56:00.652Z,56.53
2022-10-10T22:58:27.876Z,56.78
2022-10-10T23:00:54.819Z,56.80
2022-10-10T23:03:21.757Z,56.92
2022-10-10T23:05:48.674Z,57.03
2022-10-10T23:08:15.574Z,57.13
2022-10-10T23:10:42.647Z,57.34
2022-10-10T23:13:09.537Z,57.34
2022-10-10T23:15:36.416Z,57.58
2022-10-10T23:18:03.289Z,57.47
2022-10-10T23:20:30.177Z,57.52
2022-10-10T23:22:57.080Z,57.52
2022-10-10T23:25:24.054Z,57.72
2022-10-10T23:27:51.320Z,57.57
2022-10-10T23:30:18.312Z,57.83
2022-10-10T23:32:45.370Z,58.24
2022-10-10T23:35:13.589Z,58.13
2022-10-10T23:37:41.612Z,57.93
2022-10-10T23:40:09.159Z,58.07
2022-10-10T23:42:36.041Z,58.19
2022-10-10T23:45:03.959Z,58.31
2022-10-10T23:47:30.846Z,58.62
2022-10-10T23:49:57.783Z,58.62
2022-10-10T23:52:24.656Z,58.51
2022-10-10T23:54:51.536Z,58.42
2022-10-10T23:57:18.472Z,58.45
2022-10-10T23:59:45.348Z,58.38
